createdAt,value
2019-04-20T00:00:55.072Z,29.67
2019-04-20T00:03:38.058Z,33.35
2019-04-20T00:06:09.254Z,36.40
2019-04-20T00:08:46.267Z,36.90
2019-04-20T00:11:28.180Z,34.13
2019-04-20T00:14:08.302Z,29.20
2019-04-20T00:16:39.829Z,29.82
2019-04-20T00:19:22.577Z,26.50
2019-04-20T00:22:00.297Z,27.15
2019-04-20T00:24:37.582Z,27.13
2019-04-20T00:27:40.534Z,25.65
2019-04-20T00:30:08.930Z,28.35
2019-04-20T00:32:49.017Z,29.82
2019-04-20T00:35:08.207Z,31.27
2019-04-20T00:37:44.607Z,31.60
2019-04-20T00:40:21.502Z,33.88
2019-04-20T00:42:59.799Z,32.03
2019-04-20T00:45:40.074Z,29.27
2019-04-20T00:48:22.479Z,27.32
2019-04-20T00:51:11.558Z,22.13
2019-04-20T00:53:33.349Z,28.32
2019-04-20T00:56:07.457Z,27.93
2019-04-20T00:58:58.092Z,27.27
2019-04-20T01:01:44.162Z,28.47
2019-04-20T01:06:50.005Z,24.45
2019-04-20T01:09:18.234Z,23.22
2019-04-20T01:11:54.523Z,22.80
2019-04-20T01:14:39.944Z,22.58
2019-04-20T01:17:11.985Z,22.85
2019-04-20T01:19:48.809Z,22.82
2019-04-20T01:22:28.268Z,22.13
2019-04-20T01:25:09.774Z,21.82
2019-04-20T01:28:01.027Z,21.48
2019-04-20T01:30:25.152Z,20.25
2019-04-20T01:33:12.460Z,20.70
2019-04-20T01:35:52.167Z,21.77
2019-04-20T01:38:26.328Z,21.80
2019-04-20T01:40:50.569Z,21.15
2019-04-20T01:43:27.037Z,21.65
2019-04-20T01:46:11.263Z,20.77
2019-04-20T01:48:41.946Z,21.00
2019-04-20T01:51:23.419Z,19.40
2019-04-20T01:54:12.108Z,19.52
2019-04-20T01:56:47.583Z,18.17
2019-04-20T01:59:39.950Z,19.75
2019-04-20T02:02:15.229Z,19.37
2019-04-20T02:04:53.436Z,19.73
2019-04-20T02:07:35.026Z,19.73
2019-04-20T02:10:11.358Z,19.92
2019-04-20T02:12:50.313Z,20.90
2019-04-20T02:15:30.997Z,20.37
2019-04-20T02:18:14.929Z,22.00
2019-04-20T02:21:01.384Z,22.00
2019-04-20T02:23:33.014Z,22.10
2019-04-20T02:25:55.082Z,21.50
2019-04-20T02:28:58.102Z,22.75
2019-04-20T02:32:04.994Z,21.65
2019-04-20T02:37:24.597Z,20.68
2019-04-20T02:40:05.219Z,21.27
2019-04-20T02:47:54.937Z,20.95
2019-04-20T02:50:30.862Z,21.17
2019-04-20T02:53:15.585Z,21.95
2019-04-20T02:55:53.445Z,22.22
2019-04-20T02:58:23.640Z,22.42
2019-04-20T03:00:52.741Z,21.45
2019-04-20T03:03:19.566Z,21.87
2019-04-20T03:06:01.337Z,23.27
2019-04-20T03:08:38.218Z,24.63
2019-04-20T03:11:26.221Z,27.82
2019-04-20T03:13:57.851Z,26.70
2019-04-20T03:16:32.183Z,27.42
2019-04-20T03:19:12.948Z,23.55
2019-04-20T03:22:01.380Z,23.02
2019-04-20T03:24:33.741Z,24.27
2019-04-20T03:27:07.915Z,24.07
2019-04-20T03:29:52.663Z,23.67
2019-04-20T03:35:25.051Z,21.52
2019-04-20T03:37:46.567Z,24.00
2019-04-20T03:40:19.121Z,27.13
2019-04-20T03:42:39.976Z,35.80
2019-04-20T03:45:19.341Z,27.55
2019-04-20T03:48:08.314Z,26.57
2019-04-20T03:50:50.815Z,24.85
2019-04-20T03:53:29.815Z,25.70
2019-04-20T03:56:19.489Z,25.25
2019-04-20T03:58:57.229Z,24.67
2019-04-20T04:02:09.313Z,24.47
2019-04-20T04:04:27.155Z,24.23
2019-04-20T04:06:51.695Z,25.82
2019-04-20T04:09:32.966Z,26.25
2019-04-20T04:12:41.776Z,24.72
2019-04-20T04:15:16.759Z,25.15
2019-04-20T04:17:53.116Z,23.98
2019-04-20T04:20:38.720Z,24.27
2019-04-20T04:23:22.089Z,26.52
2019-04-20T04:26:05.853Z,24.72
2019-04-20T04:28:40.992Z,24.98
2019-04-20T04:31:24.243Z,25.12
2019-04-20T04:33:58.112Z,24.82
2019-04-20T04:36:35.929Z,24.50
2019-04-20T04:39:15.480Z,25.12
2019-04-20T04:42:05.215Z,24.47
2019-04-20T04:44:26.300Z,25.32
2019-04-20T04:46:56.060Z,25.68
2019-04-20T04:49:34.399Z,27.30
2019-04-20T04:52:10.329Z,28.40
2019-04-20T04:54:53.334Z,29.10
2019-04-20T04:57:22.244Z,30.65
2019-04-20T04:59:59.438Z,29.02
2019-04-20T05:02:43.251Z,28.00
2019-04-20T05:05:35.558Z,27.87
2019-04-20T05:08:02.920Z,27.02
2019-04-20T05:10:31.221Z,27.93
2019-04-20T05:13:07.205Z,27.85
2019-04-20T05:15:57.997Z,28.00
2019-04-20T05:18:48.359Z,30.68
2019-04-20T05:21:21.620Z,28.38
2019-04-20T05:24:04.498Z,26.30
2019-04-20T05:26:53.417Z,29.05
2019-04-20T05:31:49.044Z,27.62
2019-04-20T05:34:45.388Z,32.80
2019-04-20T05:37:27.218Z,36.08
2019-04-20T05:39:57.762Z,32.38
2019-04-20T05:42:40.711Z,37.55
2019-04-20T05:45:11.564Z,31.50
2019-04-20T05:47:50.835Z,35.92
2019-04-20T05:50:28.958Z,29.15
2019-04-20T05:53:07.253Z,32.30
2019-04-20T05:55:47.255Z,31.00
2019-04-20T05:58:22.090Z,31.95
2019-04-20T06:01:02.815Z,31.45
2019-04-20T06:03:32.229Z,32.80
2019-04-20T06:06:20.626Z,32.70
2019-04-20T06:08:59.597Z,32.00
2019-04-20T06:11:32.005Z,31.60
2019-04-20T06:14:11.373Z,33.63
2019-04-20T06:17:04.872Z,32.17
2019-04-20T06:19:39.535Z,30.72
2019-04-20T06:22:28.558Z,32.00
2019-04-20T06:25:17.021Z,33.08
2019-04-20T06:27:49.939Z,31.77
2019-04-20T06:30:14.085Z,33.75
2019-04-20T06:33:55.294Z,33.73
2019-04-20T06:36:24.196Z,32.58
2019-04-20T06:39:02.283Z,32.25
2019-04-20T06:41:45.542Z,31.73
2019-04-20T06:44:21.591Z,29.50
2019-04-20T06:46:53.659Z,30.57
2019-04-20T06:49:31.518Z,29.12
2019-04-20T06:52:13.769Z,29.72
2019-04-20T06:54:45.174Z,28.60
2019-04-20T06:57:18.458Z,28.38
2019-04-20T07:02:35.982Z,26.65
2019-04-20T07:05:12.760Z,26.50
2019-04-20T07:07:54.773Z,26.00
2019-04-20T07:10:32.476Z,25.82
2019-04-20T07:13:00.280Z,27.42
2019-04-20T07:15:40.138Z,27.00
2019-04-20T07:18:29.927Z,28.07
2019-04-20T07:21:12.775Z,27.62
2019-04-20T07:23:54.527Z,28.45
2019-04-20T07:26:31.295Z,27.87
2019-04-20T07:29:13.658Z,26.70
2019-04-20T07:31:39.352Z,27.27
2019-04-20T07:34:21.084Z,26.85
2019-04-20T07:37:09.843Z,27.60
2019-04-20T07:39:36.383Z,27.10
2019-04-20T07:42:16.747Z,26.55
2019-04-20T07:44:57.984Z,26.25
2019-04-20T07:47:38.699Z,27.07
2019-04-20T07:50:04.917Z,26.65
2019-04-20T07:52:36.987Z,26.95
2019-04-20T07:57:53.722Z,25.25
2019-04-20T08:00:51.934Z,27.07
2019-04-20T08:03:32.069Z,26.15
2019-04-20T08:05:51.202Z,25.60
2019-04-20T08:08:32.745Z,25.20
2019-04-20T08:11:17.876Z,25.92
2019-04-20T08:13:58.727Z,24.25
2019-04-20T08:16:42.378Z,25.35
2019-04-20T08:19:04.752Z,26.45
2019-04-20T08:21:47.300Z,25.92
2019-04-20T08:24:21.317Z,22.60
2019-04-20T08:26:50.339Z,22.13
2019-04-20T08:29:41.796Z,21.80
2019-04-20T08:35:05.233Z,19.87
2019-04-20T08:37:40.192Z,18.85
2019-04-20T08:40:19.555Z,18.20
2019-04-20T08:43:02.464Z,18.05
2019-04-20T08:48:17.412Z,14.78
2019-04-20T08:50:51.340Z,16.82
2019-04-20T08:53:33.497Z,14.63
2019-04-20T08:55:59.076Z,15.05
2019-04-20T08:58:23.271Z,13.75
2019-04-20T09:01:03.356Z,11.83
2019-04-20T09:03:51.229Z,14.53
2019-04-20T09:06:32.328Z,12.50
2019-04-20T09:09:19.770Z,12.88
2019-04-20T09:11:49.236Z,13.10
2019-04-20T09:14:10.928Z,10.98
2019-04-20T09:16:57.070Z,13.93
2019-04-20T09:19:42.130Z,13.80
2019-04-20T09:22:34.265Z,12.07
2019-04-20T09:25:50.327Z,12.43
2019-04-20T09:28:07.490Z,13.28
2019-04-20T09:30:48.133Z,9.38
2019-04-20T09:33:44.138Z,8.88
2019-04-20T09:36:39.828Z,10.15
2019-04-20T09:39:21.381Z,9.43
2019-04-20T09:42:00.753Z,10.10
2019-04-20T09:44:37.520Z,9.55
2019-04-20T09:47:10.464Z,10.82
2019-04-20T09:49:58.036Z,10.82
2019-04-20T09:52:39.903Z,11.03
2019-04-20T09:55:18.760Z,10.13
2019-04-20T09:58:05.164Z,9.25
2019-04-20T10:00:58.825Z,8.93
2019-04-20T10:03:22.708Z,9.63
2019-04-20T10:05:59.275Z,8.95
2019-04-20T10:08:44.749Z,9.93
2019-04-20T10:11:14.141Z,9.68
2019-04-20T10:13:52.278Z,8.63
2019-04-20T10:16:29.464Z,9.55
2019-04-20T10:19:07.180Z,9.83
2019-04-20T10:21:43.643Z,9.25
2019-04-20T10:24:20.907Z,9.35
2019-04-20T10:26:57.038Z,8.80
2019-04-20T10:29:35.474Z,8.73
2019-04-20T10:32:15.522Z,8.70
2019-04-20T10:34:50.699Z,8.08
2019-04-20T10:37:29.344Z,8.18
2019-04-20T10:40:07.268Z,7.92
2019-04-20T10:42:44.009Z,8.20
2019-04-20T10:45:21.271Z,7.22
2019-04-20T10:47:57.398Z,7.30
2019-04-20T10:50:34.512Z,7.00
2019-04-20T10:53:12.105Z,6.60
2019-04-20T10:55:49.520Z,5.97
2019-04-20T10:58:25.615Z,5.90
2019-04-20T11:01:01.808Z,5.62
2019-04-20T11:03:38.456Z,6.40
2019-04-20T11:06:14.622Z,6.10
2019-04-20T11:08:50.809Z,6.37
2019-04-20T11:11:29.180Z,5.42
2019-04-20T11:14:08.348Z,6.08
2019-04-20T11:16:44.386Z,6.12
2019-04-20T11:19:21.176Z,6.25
2019-04-20T11:21:58.497Z,6.15
2019-04-20T11:24:34.623Z,5.72
2019-04-20T11:27:12.052Z,5.80
2019-04-20T11:29:49.836Z,5.80
2019-04-20T11:32:26.297Z,6.10
2019-04-20T11:35:11.079Z,6.03
2019-04-20T11:37:39.992Z,5.97
2019-04-20T11:40:17.000Z,5.62
2019-04-20T11:42:53.383Z,5.83
2019-04-20T11:45:30.825Z,6.50
2019-04-20T11:48:07.484Z,5.50
2019-04-20T11:50:43.502Z,5.45
2019-04-20T11:53:19.473Z,6.22
2019-04-20T11:55:56.277Z,5.90
2019-04-20T11:58:33.136Z,6.00
2019-04-20T12:01:27.175Z,5.67
2019-04-20T12:04:09.280Z,6.10
2019-04-20T12:06:39.125Z,5.53
2019-04-20T12:09:15.217Z,5.97
2019-04-20T12:12:04.178Z,5.67
2019-04-20T12:14:28.797Z,6.00
2019-04-20T12:17:05.898Z,6.15
2019-04-20T12:19:43.873Z,4.75
2019-04-20T12:22:19.895Z,5.58
2019-04-20T12:24:56.243Z,5.95
2019-04-20T12:27:32.553Z,8.70
2019-04-20T12:30:12.094Z,6.33
2019-04-20T12:32:52.654Z,6.00
2019-04-20T12:35:26.494Z,6.37
2019-04-20T12:38:03.107Z,6.05
2019-04-20T12:40:39.953Z,5.67
2019-04-20T12:43:17.197Z,5.50
2019-04-20T12:45:53.838Z,5.95
2019-04-20T12:48:31.506Z,6.12
2019-04-20T12:51:07.832Z,6.35
2019-04-20T12:53:44.540Z,5.70
2019-04-20T12:56:20.491Z,5.37
2019-04-20T12:58:57.780Z,6.17
2019-04-20T13:01:33.716Z,5.50
2019-04-20T13:04:09.678Z,5.47
2019-04-20T13:06:46.976Z,5.72
2019-04-20T13:09:23.142Z,5.55
2019-04-20T13:12:05.476Z,6.37
2019-04-20T13:14:52.701Z,5.35
2019-04-20T13:17:28.586Z,4.87
2019-04-20T13:20:07.887Z,5.12
2019-04-20T13:22:44.317Z,6.35
2019-04-20T13:25:21.058Z,5.85
2019-04-20T13:27:57.164Z,4.90
2019-04-20T13:30:33.527Z,5.33
2019-04-20T13:33:10.120Z,4.95
2019-04-20T13:35:46.267Z,4.85
2019-04-20T13:38:22.512Z,5.55
2019-04-20T13:40:59.887Z,5.60
2019-04-20T13:43:35.971Z,5.35
2019-04-20T13:46:13.263Z,5.70
2019-04-20T13:48:49.419Z,5.65
2019-04-20T13:51:26.542Z,5.00
2019-04-20T13:54:07.379Z,4.87
2019-04-20T13:56:41.768Z,5.55
2019-04-20T13:59:25.857Z,5.78
2019-04-20T14:02:06.831Z,6.50
2019-04-20T14:04:44.568Z,5.20
2019-04-20T14:07:21.884Z,5.28
2019-04-20T14:09:57.950Z,5.62
2019-04-20T14:12:38.622Z,5.20
2019-04-20T14:15:13.217Z,6.28
2019-04-20T14:17:49.254Z,5.28
2019-04-20T14:20:26.021Z,5.60
2019-04-20T14:23:03.216Z,5.22
2019-04-20T14:25:39.323Z,5.80
2019-04-20T14:28:15.520Z,4.53
2019-04-20T14:30:52.015Z,5.45
2019-04-20T14:33:28.628Z,5.53
2019-04-20T14:36:05.209Z,22.50
2019-04-20T14:38:43.731Z,8.58
2019-04-20T14:41:20.143Z,5.28
2019-04-20T14:43:57.286Z,4.95
2019-04-20T14:46:33.644Z,4.70
2019-04-20T14:49:10.423Z,4.50
2019-04-20T14:51:47.723Z,5.28
2019-04-20T14:54:23.864Z,7.70
2019-04-20T14:57:01.265Z,5.72
2019-04-20T14:59:39.065Z,5.20
2019-04-20T15:02:17.398Z,4.72
2019-04-20T15:04:54.823Z,5.15
2019-04-20T15:07:30.952Z,4.22
2019-04-20T15:10:08.999Z,5.85
2019-04-20T15:12:49.917Z,4.72
2019-04-20T15:15:22.948Z,4.20
2019-04-20T15:18:09.459Z,4.62
2019-04-20T15:20:47.795Z,4.12
2019-04-20T15:23:25.708Z,4.17
2019-04-20T15:26:02.433Z,5.00
2019-04-20T15:28:38.648Z,5.00
2019-04-20T15:31:14.696Z,5.33
2019-04-20T15:33:50.888Z,4.47
2019-04-20T15:36:28.365Z,4.87
2019-04-20T15:39:07.327Z,4.92
2019-04-20T15:41:45.298Z,4.35
2019-04-20T15:44:23.242Z,4.55
2019-04-20T15:46:59.436Z,5.10
2019-04-20T15:49:35.842Z,4.50
2019-04-20T15:52:17.906Z,5.03
2019-04-20T15:54:49.949Z,4.17
2019-04-20T15:57:29.135Z,4.17
2019-04-20T16:00:06.561Z,4.75
2019-04-20T16:02:53.698Z,5.33
2019-04-20T16:05:49.629Z,4.40
2019-04-20T16:08:38.975Z,5.05
2019-04-20T16:11:15.347Z,12.03
2019-04-20T16:13:53.903Z,6.40
2019-04-20T16:16:29.967Z,5.70
2019-04-20T16:19:13.637Z,20.40
2019-04-20T16:21:43.929Z,8.55
2019-04-20T16:24:22.349Z,5.55
2019-04-20T16:26:59.912Z,3.95
2019-04-20T16:29:36.421Z,4.30
2019-04-20T16:32:14.361Z,6.40
2019-04-20T16:34:50.742Z,5.60
2019-04-20T16:37:26.719Z,5.92
2019-04-20T16:40:04.295Z,3.83
2019-04-20T16:42:42.265Z,3.60
2019-04-20T16:45:19.145Z,3.30
2019-04-20T16:47:55.141Z,3.70
2019-04-20T16:50:31.301Z,3.72
2019-04-20T16:53:08.769Z,4.37
2019-04-20T16:55:45.378Z,3.75
2019-04-20T16:58:21.735Z,3.47
2019-04-20T17:00:59.266Z,5.20
2019-04-20T17:03:45.970Z,4.50
2019-04-20T17:06:13.847Z,4.70
2019-04-20T17:08:51.202Z,5.75
2019-04-20T17:11:27.768Z,4.80
2019-04-20T17:14:03.822Z,7.10
2019-04-20T17:16:39.788Z,6.03
2019-04-20T17:19:15.731Z,5.92
2019-04-20T17:21:53.379Z,6.20
2019-04-20T17:24:29.687Z,6.42
2019-04-20T17:27:10.852Z,12.88
2019-04-20T17:30:05.260Z,43.33
2019-04-20T17:32:43.359Z,29.77
2019-04-20T17:35:32.878Z,53.70
2019-04-20T17:37:58.437Z,16.65
2019-04-20T17:40:55.914Z,14.75
2019-04-20T17:43:22.994Z,12.03
2019-04-20T17:46:00.656Z,23.22
2019-04-20T17:48:39.964Z,29.20
2019-04-20T17:51:27.734Z,32.13
2019-04-20T17:53:54.546Z,14.98
2019-04-20T17:56:26.414Z,17.30
2019-04-20T17:59:02.409Z,11.80
2019-04-20T18:02:07.831Z,11.10
2019-04-20T18:05:14.495Z,17.77
2019-04-20T18:07:46.287Z,23.50
2019-04-20T18:10:22.661Z,22.42
2019-04-20T18:12:46.262Z,29.32
2019-04-20T18:15:39.074Z,37.85
2019-04-20T18:18:32.385Z,31.00
2019-04-20T18:21:10.806Z,28.32
2019-04-20T18:23:49.836Z,13.45
2019-04-20T18:26:45.448Z,10.55
2019-04-20T18:29:25.674Z,20.25
2019-04-20T18:31:57.712Z,19.82
2019-04-20T18:34:45.836Z,67.45
2019-04-20T18:37:21.464Z,120.13
2019-04-20T18:40:03.086Z,85.03
2019-04-20T18:42:40.665Z,68.02
2019-04-20T18:45:28.463Z,57.43
2019-04-20T18:48:11.690Z,118.40
2019-04-20T18:50:37.670Z,43.78
2019-04-20T18:53:05.995Z,59.67
2019-04-20T18:55:52.741Z,53.87
2019-04-20T18:58:31.216Z,53.23
2019-04-20T19:01:07.630Z,99.83
2019-04-20T19:03:45.520Z,86.50
2019-04-20T19:06:21.528Z,73.05
2019-04-20T19:08:58.990Z,195.18
2019-04-20T19:11:55.899Z,67.60
2019-04-20T19:14:34.932Z,28.42
2019-04-20T19:17:17.218Z,30.40
2019-04-20T19:19:53.441Z,23.80
2019-04-20T19:22:28.085Z,25.68
2019-04-20T19:25:05.600Z,26.52
2019-04-20T19:27:48.568Z,26.25
2019-04-20T19:30:31.339Z,29.02
2019-04-20T19:33:17.557Z,22.45
2019-04-20T19:35:48.143Z,21.17
2019-04-20T19:38:20.677Z,20.95
2019-04-20T19:41:01.735Z,22.07
2019-04-20T19:43:41.137Z,23.77
2019-04-20T19:46:39.669Z,20.35
2019-04-20T19:48:56.551Z,21.50
2019-04-20T19:51:47.679Z,18.98
2019-04-20T19:54:26.914Z,20.82
2019-04-20T19:56:58.287Z,21.80
2019-04-20T19:59:25.983Z,22.52
2019-04-20T20:01:57.962Z,21.62
2019-04-20T20:04:41.443Z,22.77
2019-04-20T20:07:21.983Z,21.15
2019-04-20T20:09:55.519Z,22.07
2019-04-20T20:12:29.527Z,26.10
2019-04-20T20:15:14.847Z,39.35
2019-04-20T20:18:05.809Z,38.05
2019-04-20T20:20:41.247Z,30.25
2019-04-20T20:23:01.602Z,25.20
2019-04-20T20:25:44.683Z,22.87
2019-04-20T20:28:32.241Z,22.32
2019-04-20T20:31:12.369Z,20.00
2019-04-20T20:33:55.948Z,19.93
2019-04-20T20:36:23.003Z,21.87
2019-04-20T20:39:04.484Z,21.12
2019-04-20T20:41:45.072Z,23.42
2019-04-20T20:44:26.096Z,23.83
2019-04-20T20:47:00.787Z,25.10
2019-04-20T20:49:48.649Z,23.32
2019-04-20T20:52:21.912Z,23.75
2019-04-20T20:54:56.492Z,22.67
2019-04-20T20:57:24.353Z,24.65
2019-04-20T21:00:03.676Z,27.50
2019-04-20T21:02:44.733Z,32.78
2019-04-20T21:05:15.559Z,34.35
2019-04-20T21:07:51.713Z,34.43
2019-04-20T21:10:33.077Z,26.50
2019-04-20T21:13:10.031Z,26.60
2019-04-20T21:15:52.269Z,23.65
2019-04-20T21:18:43.524Z,24.25
2019-04-20T21:21:17.028Z,26.75
2019-04-20T21:23:48.135Z,27.27
2019-04-20T21:26:28.033Z,25.43
2019-04-20T21:28:52.982Z,31.48
2019-04-20T21:31:29.713Z,33.08
2019-04-20T21:34:12.654Z,33.25
2019-04-20T21:36:45.059Z,33.55
2019-04-20T21:39:32.429Z,32.60
2019-04-20T21:42:05.411Z,37.93
2019-04-20T21:44:41.344Z,40.25
2019-04-20T21:47:17.726Z,40.48
2019-04-20T21:50:09.842Z,40.50
2019-04-20T21:52:36.139Z,40.15
2019-04-20T21:55:08.314Z,39.53
2019-04-20T21:57:50.115Z,38.23
2019-04-20T22:00:44.536Z,63.95
2019-04-20T22:03:18.536Z,169.70
2019-04-20T22:06:04.511Z,152.68
2019-04-20T22:08:49.594Z,114.17
2019-04-20T22:11:20.052Z,87.45
2019-04-20T22:13:57.369Z,66.57
2019-04-20T22:16:38.884Z,57.70
2019-04-20T22:19:26.438Z,51.83
2019-04-20T22:22:00.999Z,44.48
2019-04-20T22:24:57.790Z,37.13
2019-04-20T22:27:36.703Z,34.50
2019-04-20T22:30:24.054Z,33.13
2019-04-20T22:33:18.571Z,27.27
2019-04-20T22:36:04.112Z,30.77
2019-04-20T22:38:59.432Z,32.48
2019-04-20T22:41:54.670Z,34.23
2019-04-20T22:44:30.346Z,32.58
2019-04-20T22:47:13.883Z,32.10
2019-04-20T22:50:07.856Z,35.63
2019-04-20T22:52:43.052Z,26.23
2019-04-20T22:55:27.110Z,30.97
2019-04-20T22:57:54.653Z,30.37
2019-04-20T23:00:36.525Z,30.70
2019-04-20T23:03:00.845Z,30.10
2019-04-20T23:05:38.618Z,28.52
2019-04-20T23:08:15.005Z,28.57
2019-04-20T23:10:51.451Z,29.82
2019-04-20T23:13:34.360Z,27.55
2019-04-20T23:16:06.108Z,29.20
2019-04-20T23:18:44.315Z,24.32
2019-04-20T23:21:21.715Z,27.22
2019-04-20T23:24:00.328Z,25.30
2019-04-20T23:26:38.692Z,24.00
2019-04-20T23:29:13.412Z,22.42
2019-04-20T23:31:56.937Z,24.25
2019-04-20T23:34:30.988Z,26.65
2019-04-20T23:37:09.924Z,23.98
2019-04-20T23:39:44.995Z,25.43
2019-04-20T23:42:27.972Z,26.42
2019-04-20T23:45:07.540Z,23.25
2019-04-20T23:47:54.118Z,22.90
2019-04-20T23:50:43.567Z,23.27
2019-04-20T23:53:19.844Z,19.52
2019-04-20T23:55:41.685Z,22.60
2019-04-20T23:58:18.219Z,23.52
